createdAt,value
2023-03-27T00:04:09.184Z,99015.81
2023-03-27T00:09:09.971Z,99011.56
2023-03-27T00:14:11.850Z,99021.06
2023-03-27T00:19:13.886Z,99019.38
2023-03-27T00:24:15.895Z,99018.50
2023-03-27T00:29:16.859Z,99020.91
2023-03-27T00:34:19.032Z,99024.25
2023-03-27T00:39:20.691Z,99023.25
2023-03-27T00:44:27.404Z,99034.59
2023-03-27T00:49:34.888Z,99032.63
2023-03-27T00:54:40.236Z,99055.81
2023-03-27T00:59:43.367Z,99053.72
2023-03-27T01:04:46.578Z,99059.38
2023-03-27T01:09:47.863Z,99078.88
2023-03-27T01:15:00.766Z,99086.00
2023-03-27T01:20:41.143Z,99108.50
2023-03-27T01:26:13.298Z,99114.88
2023-03-27T01:31:34.515Z,99133.47
2023-03-27T01:37:10.944Z,99159.53
2023-03-27T01:42:21.247Z,99169.00
2023-03-27T01:47:39.519Z,99194.97
2023-03-27T01:52:42.708Z,99205.34
2023-03-27T01:57:50.601Z,99231.94
2023-03-27T02:02:56.810Z,99237.09
2023-03-27T02:08:04.022Z,99261.94
2023-03-27T02:13:10.256Z,99273.03
2023-03-27T02:18:19.136Z,99279.03
2023-03-27T02:23:23.061Z,99276.47
2023-03-27T02:28:40.130Z,99290.19
2023-03-27T02:33:56.180Z,99312.44
2023-03-27T02:39:02.997Z,99327.03
2023-03-27T02:44:14.586Z,99345.00
2023-03-27T02:49:37.542Z,99357.84
2023-03-27T02:54:43.714Z,99362.13
2023-03-27T02:59:51.837Z,99370.69
2023-03-27T03:04:59.118Z,99386.94
2023-03-27T03:10:14.120Z,99401.53
2023-03-27T03:15:16.678Z,99407.53
2023-03-27T03:20:17.680Z,99422.94
2023-03-27T03:25:19.846Z,99438.34
2023-03-27T03:30:23.288Z,99446.06
2023-03-27T03:35:34.865Z,99452.06
2023-03-27T03:40:40.879Z,99467.50
2023-03-27T03:45:42.937Z,99487.19
2023-03-27T03:50:44.421Z,99493.16
2023-03-27T03:55:45.810Z,99499.19
2023-03-27T04:00:48.080Z,99509.47
2023-03-27T04:06:11.471Z,99524.91
2023-03-27T04:11:12.517Z,99541.19
2023-03-27T04:16:30.883Z,99546.34
2023-03-27T04:21:37.648Z,99550.63
2023-03-27T04:26:39.197Z,99552.34
2023-03-27T04:32:00.040Z,99556.63
2023-03-27T04:37:16.075Z,99576.31
2023-03-27T04:42:32.153Z,99579.78
2023-03-27T04:47:37.804Z,99592.63
2023-03-27T04:52:39.602Z,99605.50
2023-03-27T04:57:47.013Z,99619.22
2023-03-27T05:02:50.165Z,99629.53
2023-03-27T05:07:58.048Z,99640.66
2023-03-27T05:13:00.405Z,99651.81
2023-03-27T05:18:02.798Z,99645.81
2023-03-27T05:23:05.536Z,99660.38
2023-03-27T05:28:06.313Z,99684.38
2023-03-27T05:33:13.943Z,99690.38
2023-03-27T05:38:15.498Z,99684.38
2023-03-27T05:43:34.874Z,99702.41
2023-03-27T05:48:38.600Z,99705.81
2023-03-27T05:53:39.678Z,99701.53
2023-03-27T05:58:52.246Z,99724.69
2023-03-27T06:03:56.150Z,99728.94
2023-03-27T06:09:05.337Z,99745.22
2023-03-27T06:14:08.458Z,99746.97
2023-03-27T06:19:29.665Z,99775.25
2023-03-27T06:24:30.478Z,99762.38
2023-03-27T06:29:33.448Z,99770.97
2023-03-27T06:34:36.421Z,99783.00
2023-03-27T06:39:50.579Z,99789.94
2023-03-27T06:44:52.201Z,99792.53
2023-03-27T06:50:14.593Z,99813.97
2023-03-27T06:55:17.137Z,99814.78
2023-03-27T07:00:29.097Z,99827.63
2023-03-27T07:06:00.546Z,99840.59
2023-03-27T07:11:12.014Z,99852.59
2023-03-27T07:16:19.379Z,99849.94
2023-03-27T07:21:21.499Z,99858.44
2023-03-27T07:26:22.176Z,99879.06
2023-03-27T07:31:42.364Z,99875.44
2023-03-27T07:36:51.803Z,99883.09
2023-03-27T07:41:52.877Z,99895.16
2023-03-27T07:47:09.832Z,99897.69
2023-03-27T07:52:13.247Z,99902.00
2023-03-27T07:57:23.060Z,99909.78
2023-03-27T08:02:27.385Z,99915.88
2023-03-27T08:07:30.304Z,99921.22
2023-03-27T08:12:34.079Z,99925.47
2023-03-27T08:17:36.382Z,99946.00
2023-03-27T08:22:39.497Z,99934.00
2023-03-27T08:28:11.002Z,99941.81
2023-03-27T08:33:15.109Z,99947.03
2023-03-27T08:38:26.042Z,99941.19
2023-03-27T08:43:51.813Z,99937.75
2023-03-27T08:48:59.020Z,99954.91
2023-03-27T08:54:08.477Z,99976.44
2023-03-27T08:59:16.891Z,99954.97
2023-03-27T09:04:26.485Z,99958.34
2023-03-27T09:09:38.797Z,99960.09
2023-03-27T09:14:49.669Z,99972.16
2023-03-27T09:19:57.869Z,99971.28
2023-03-27T09:25:08.383Z,99960.97
2023-03-27T09:30:31.611Z,99978.19
2023-03-27T09:36:04.913Z,99998.81
2023-03-27T09:41:12.871Z,100003.06
2023-03-27T09:46:19.993Z,100005.69
2023-03-27T09:51:43.460Z,99987.66
2023-03-27T09:57:01.910Z,100008.25
2023-03-27T10:02:17.361Z,100019.47
2023-03-27T10:07:25.283Z,99994.50
2023-03-27T10:12:51.025Z,100008.28
2023-03-27T10:17:52.222Z,100008.25
2023-03-27T10:22:54.981Z,100021.19
2023-03-27T10:28:14.134Z,100051.25
2023-03-27T10:33:36.554Z,100029.78
2023-03-27T10:39:14.723Z,100031.50
2023-03-27T10:44:32.478Z,100030.63
2023-03-27T10:49:39.055Z,100046.88
2023-03-27T10:54:47.913Z,100039.09
2023-03-27T10:59:56.195Z,100037.19
2023-03-27T11:05:05.558Z,100057.00
2023-03-27T11:10:15.715Z,100067.41
2023-03-27T11:15:22.403Z,100056.03
2023-03-27T11:20:33.076Z,100054.44
2023-03-27T11:25:46.563Z,100063.19
2023-03-27T11:30:56.958Z,100093.28
2023-03-27T11:36:07.181Z,100079.47
2023-03-27T11:41:17.643Z,100070.72
2023-03-27T11:46:35.750Z,100092.34
2023-03-27T11:51:51.688Z,100092.34
2023-03-27T11:56:54.557Z,100109.63
2023-03-27T12:02:46.515Z,100120.88
2023-03-27T12:07:59.943Z,100123.53
2023-03-27T12:13:28.833Z,100109.69
2023-03-27T12:19:03.873Z,100107.72
2023-03-27T12:24:28.321Z,100103.47
2023-03-27T12:30:18.203Z,100090.63
2023-03-27T12:35:24.471Z,100095.50
2023-03-27T12:40:32.060Z,100088.25
2023-03-27T12:45:47.480Z,100094.59
2023-03-27T12:50:58.865Z,100088.59
2023-03-27T12:56:30.832Z,100113.53
2023-03-27T13:01:55.610Z,100105.50
2023-03-27T13:07:07.058Z,100096.22
2023-03-27T13:12:49.026Z,100102.34
2023-03-27T13:18:01.583Z,100107.31
2023-03-27T13:23:24.059Z,100132.66
2023-03-27T13:28:35.526Z,100144.91
2023-03-27T13:34:13.049Z,100134.53
2023-03-27T13:39:24.494Z,100136.16
2023-03-27T13:44:44.053Z,100139.47
2023-03-27T13:50:02.764Z,100134.19
2023-03-27T13:55:28.886Z,100140.63
2023-03-27T14:01:17.148Z,100192.41
2023-03-27T14:06:55.789Z,100190.63
2023-03-27T14:12:08.640Z,100199.19
2023-03-27T14:17:38.914Z,100214.56
2023-03-27T14:22:47.652Z,100182.69
2023-03-27T14:27:56.412Z,100196.53
2023-03-27T14:33:08.056Z,100212.03
2023-03-27T14:38:18.134Z,100236.75
2023-03-27T14:43:22.243Z,100223.78
2023-03-27T14:48:31.734Z,100240.25
2023-03-27T14:53:36.632Z,100237.00
2023-03-27T14:58:53.244Z,100241.34
2023-03-27T15:03:54.988Z,100247.38
2023-03-27T15:08:59.672Z,100260.31
2023-03-27T15:14:26.570Z,100264.59
2023-03-27T15:19:32.048Z,100274.09
2023-03-27T15:24:41.416Z,100288.69
2023-03-27T15:29:49.577Z,100264.66
2023-03-27T15:34:56.800Z,100274.00
2023-03-27T15:40:07.332Z,100263.66
2023-03-27T15:45:12.539Z,100297.94
2023-03-27T15:50:21.041Z,100274.78
2023-03-27T15:55:38.003Z,100284.28
2023-03-27T16:00:46.361Z,100284.28
2023-03-27T16:05:47.181Z,100285.25
2023-03-27T16:10:49.052Z,100312.78
2023-03-27T16:15:58.966Z,100305.88
2023-03-27T16:21:17.308Z,100305.00
2023-03-27T16:26:22.482Z,100304.16
2023-03-27T16:31:24.524Z,100309.34
2023-03-27T16:36:30.622Z,100321.38
2023-03-27T16:41:32.543Z,100317.09
2023-03-27T16:46:35.093Z,100330.03
2023-03-27T16:56:36.759Z,100337.69
2023-03-27T17:01:38.890Z,100347.84
2023-03-27T17:06:40.497Z,100360.63
2023-03-27T17:11:42.346Z,100353.69
2023-03-27T17:16:44.981Z,100372.59
2023-03-27T17:21:45.710Z,100376.09
2023-03-27T17:26:46.759Z,100434.91
2023-03-27T17:31:48.833Z,100435.13
2023-03-27T17:36:54.550Z,100450.41
2023-03-27T17:41:55.524Z,100451.78
2023-03-27T17:46:57.726Z,100461.03
2023-03-27T17:51:58.444Z,100497.03
2023-03-27T17:56:59.178Z,100486.53
2023-03-27T18:02:01.500Z,100508.94
2023-03-27T18:07:02.401Z,100507.72
2023-03-27T18:12:05.831Z,100506.63
2023-03-27T18:17:08.027Z,100505.84
2023-03-27T18:22:08.836Z,100498.97
2023-03-27T18:27:09.615Z,100516.06
2023-03-27T18:32:11.996Z,100525.69
2023-03-27T18:37:12.928Z,100529.84
2023-03-27T18:42:13.694Z,100524.53
2023-03-27T18:47:15.751Z,100528.00
2023-03-27T18:52:16.982Z,100524.66
2023-03-27T18:57:19.944Z,100525.63
2023-03-27T19:02:22.659Z,100519.69
2023-03-27T19:07:23.446Z,100518.00
2023-03-27T19:12:24.121Z,100518.97
2023-03-27T19:18:04.841Z,100525.09
2023-03-27T19:23:27.110Z,100524.31
2023-03-27T19:28:27.795Z,100526.97
2023-03-27T19:33:29.838Z,100528.63
2023-03-27T19:38:30.581Z,100532.72
2023-03-27T19:43:31.329Z,100536.41
2023-03-27T19:48:33.661Z,100526.28
2023-03-27T19:53:35.755Z,100532.31
2023-03-27T19:58:36.564Z,100535.72
2023-03-27T20:03:40.210Z,100534.16
2023-03-27T20:08:41.164Z,100531.47
2023-03-27T20:13:55.583Z,100524.72
2023-03-27T20:19:04.478Z,100520.50
2023-03-27T20:24:06.795Z,100524.88
2023-03-27T20:29:16.549Z,100531.72
2023-03-27T20:34:22.408Z,100524.91
2023-03-27T20:39:23.675Z,100537.81
2023-03-27T20:44:34.873Z,100532.75
2023-03-27T20:49:41.262Z,100518.97
2023-03-27T20:54:42.814Z,100529.34
2023-03-27T20:59:47.538Z,100540.50
2023-03-27T21:04:50.262Z,100526.84
2023-03-27T21:09:52.924Z,100516.69
2023-03-27T21:14:53.621Z,100517.78
2023-03-27T21:19:55.661Z,100513.69
2023-03-27T21:24:56.362Z,100516.38
2023-03-27T21:29:57.026Z,100512.16
2023-03-27T21:34:59.066Z,100508.69
2023-03-27T21:39:59.945Z,100514.56
2023-03-27T21:45:00.792Z,100517.22
2023-03-27T21:50:02.842Z,100506.13
2023-03-27T21:55:03.867Z,100510.38
2023-03-27T22:00:05.278Z,100503.00
2023-03-27T22:05:14.750Z,100507.44
2023-03-27T22:10:16.589Z,100514.41
2023-03-27T22:15:17.308Z,100496.41
2023-03-27T22:20:19.666Z,100494.69
2023-03-27T22:25:20.493Z,100497.19
2023-03-27T22:30:21.260Z,100498.00
2023-03-27T22:35:23.373Z,100497.06
2023-03-27T22:40:24.150Z,100499.63
2023-03-27T22:45:24.832Z,100509.09
2023-03-27T22:50:26.832Z,100501.41
2023-03-27T22:55:27.557Z,100507.41
2023-03-27T23:00:28.320Z,100520.19
2023-03-27T23:05:30.361Z,100522.00
2023-03-27T23:10:31.063Z,100533.09
2023-03-27T23:15:31.854Z,100529.69
2023-03-27T23:20:33.934Z,100525.41
2023-03-27T23:25:34.599Z,100532.44
2023-03-27T23:30:35.522Z,100530.81
2023-03-27T23:35:37.584Z,100530.78
2023-03-27T23:40:38.843Z,100541.06
2023-03-27T23:45:39.712Z,100529.06
2023-03-27T23:50:41.819Z,100527.16
2023-03-27T23:55:42.512Z,100525.41
